Madison, Pennsylvania
Current Conditions -  °F | °C
As of 5:50 PM on Friday 19 Dec 2014 (Local Time) from KLBE Reporting Station
Overcast Overcast  
Wind Chill: 28°   Ceiling: 2600
Heat Index: 34°   Visibility: 15mi
Dew Point: 25°   Wind: 7mph
Humidity: 70%   Direction: 280°W
Pressure: 30.23"   Gusts: NA
Location:  40.25°N, 79.68°W
Report Text: KLBE 192250Z 28006KT 15SM OVC026 01/M04 A3023
Loading
Personal Weather Stations






























Interactive Weather Map New forecast layout! Learn more

10-Day Weather Forecast

Advertisements
Track Severe Weather on mobile